Terminal Aerodrome Forecast
Issued by NWS Twin Cities, MN

Home | Current Version | Previous Version | Graphics & Text | Print | Product List | Glossary On
Versions: 1 2 3 4 5 6 7 8 9 10 11 12 13 14 15 16 17 18
287
FTUS43 KMPX 220530
TAFSTC
TAF
KSTC 220530Z 2206/2306 05010KT P6SM -SHRA OVC007
      TEMPO 2206/2207 2SM TSRA OVC010CB
     FM220700 04009KT 5SM BR VCSH OVC007
     FM221500 03012KT P6SM OVC015
     FM230000 05006KT P6SM VCSH OVC035=

USA.gov is the U.S. government's official web portal to all federal, state and local government web resources and services.